sensor_id;sensor_type;location;lat;lon;timestamp;P1;durP1;ratioP1;P2;durP2;ratioP2
35795;SDS011;21916;52.428;13.302;2024-03-23T00:52:16;13.82;;;2.20;;
35795;SDS011;21916;52.428;13.302;2024-03-23T00:54:42;10.57;;;2.47;;
35795;SDS011;21916;52.428;13.302;2024-03-23T00:57:08;12.45;;;2.17;;
35795;SDS011;21916;52.428;13.302;2024-03-23T00:59:33;19.88;;;2.75;;
35795;SDS011;21916;52.428;13.302;2024-03-23T01:02:02;15.82;;;2.55;;
35795;SDS011;21916;52.428;13.302;2024-03-23T01:04:28;21.73;;;2.70;;
35795;SDS011;21916;52.428;13.302;2024-03-23T01:06:54;21.52;;;3.30;;
35795;SDS011;21916;52.428;13.302;2024-03-23T01:09:20;9.68;;;2.53;;
35795;SDS011;21916;52.428;13.302;2024-03-23T01:11:45;18.98;;;2.63;;
35795;SDS011;21916;52.428;13.302;2024-03-23T01:14:11;13.25;;;3.05;;
35795;SDS011;21916;52.428;13.302;2024-03-23T01:16:37;12.00;;;2.17;;
35795;SDS011;21916;52.428;13.302;2024-03-23T01:19:03;11.43;;;2.45;;
35795;SDS011;21916;52.428;13.302;2024-03-23T01:21:28;11.05;;;2.90;;
35795;SDS011;21916;52.428;13.302;2024-03-23T01:23:54;13.25;;;2.60;;
35795;SDS011;21916;52.428;13.302;2024-03-23T01:26:20;18.83;;;2.88;;
35795;SDS011;21916;52.428;13.302;2024-03-23T01:28:46;13.88;;;2.67;;
35795;SDS011;21916;52.428;13.302;2024-03-23T01:31:11;12.27;;;3.03;;
35795;SDS011;21916;52.428;13.302;2024-03-23T01:33:40;17.52;;;2.97;;
35795;SDS011;21916;52.428;13.302;2024-03-23T01:36:06;14.45;;;3.00;;
35795;SDS011;21916;52.428;13.302;2024-03-23T01:38:31;14.13;;;2.40;;
35795;SDS011;21916;52.428;13.302;2024-03-23T01:40:57;18.20;;;2.50;;
35795;SDS011;21916;52.428;13.302;2024-03-23T01:43:23;11.73;;;2.80;;
35795;SDS011;21916;52.428;13.302;2024-03-23T01:45:49;15.73;;;2.92;;
35795;SDS011;21916;52.428;13.302;2024-03-23T01:48:16;18.98;;;2.90;;
35795;SDS011;21916;52.428;13.302;2024-03-23T01:50:41;15.82;;;2.35;;
35795;SDS011;21916;52.428;13.302;2024-03-23T01:53:07;17.00;;;3.45;;
35795;SDS011;21916;52.428;13.302;2024-03-23T01:55:33;19.15;;;3.45;;
35795;SDS011;21916;52.428;13.302;2024-03-23T01:57:59;9.15;;;2.42;;
35795;SDS011;21916;52.428;13.302;2024-03-23T02:00:24;10.45;;;2.22;;
35795;SDS011;21916;52.428;13.302;2024-03-23T02:02:52;17.55;;;2.75;;
35795;SDS011;21916;52.428;13.302;2024-03-23T02:05:17;14.50;;;3.00;;
35795;SDS011;21916;52.428;13.302;2024-03-23T02:07:43;12.73;;;2.47;;
35795;SDS011;21916;52.428;13.302;2024-03-23T02:10:09;9.55;;;2.13;;
35795;SDS011;21916;52.428;13.302;2024-03-23T02:12:38;12.55;;;2.65;;
35795;SDS011;21916;52.428;13.302;2024-03-23T02:15:04;16.27;;;2.58;;
35795;SDS011;21916;52.428;13.302;2024-03-23T02:17:33;11.10;;;2.80;;
35795;SDS011;21916;52.428;13.302;2024-03-23T02:20:00;13.30;;;2.35;;
35795;SDS011;21916;52.428;13.302;2024-03-23T02:22:35;14.68;;;2.63;;
35795;SDS011;21916;52.428;13.302;2024-03-23T02:25:08;13.20;;;2.70;;
35795;SDS011;21916;52.428;13.302;2024-03-23T02:27:34;9.05;;;2.22;;
35795;SDS011;21916;52.428;13.302;2024-03-23T02:30:01;13.07;;;3.88;;
35795;SDS011;21916;52.428;13.302;2024-03-23T02:32:27;17.05;;;2.42;;
35795;SDS011;21916;52.428;13.302;2024-03-23T02:34:53;13.98;;;2.45;;
35795;SDS011;21916;52.428;13.302;2024-03-23T02:37:19;11.75;;;2.10;;
35795;SDS011;21916;52.428;13.302;2024-03-23T02:39:45;11.68;;;2.33;;
35795;SDS011;21916;52.428;13.302;2024-03-23T02:42:10;18.50;;;2.97;;
35795;SDS011;21916;52.428;13.302;2024-03-23T02:44:36;9.02;;;2.65;;
35795;SDS011;21916;52.428;13.302;2024-03-23T02:47:02;15.65;;;2.88;;
35795;SDS011;21916;52.428;13.302;2024-03-23T02:49:28;13.48;;;2.25;;
35795;SDS011;21916;52.428;13.302;2024-03-23T02:51:53;8.98;;;2.53;;
35795;SDS011;21916;52.428;13.302;2024-03-23T02:54:19;13.20;;;3.38;;
35795;SDS011;21916;52.428;13.302;2024-03-23T02:56:45;16.02;;;3.40;;
35795;SDS011;21916;52.428;13.302;2024-03-23T02:59:11;10.65;;;2.33;;
35795;SDS011;21916;52.428;13.302;2024-03-23T03:01:36;10.13;;;2.17;;
35795;SDS011;21916;52.428;13.302;2024-03-23T03:04:06;17.30;;;2.58;;
35795;SDS011;21916;52.428;13.302;2024-03-23T03:06:33;12.93;;;2.65;;
35795;SDS011;21916;52.428;13.302;2024-03-23T03:08:58;20.10;;;3.38;;
35795;SDS011;21916;52.428;13.302;2024-03-23T03:11:24;12.00;;;2.13;;
35795;SDS011;21916;52.428;13.302;2024-03-23T03:13:50;10.43;;;2.28;;
35795;SDS011;21916;52.428;13.302;2024-03-23T03:16:16;12.10;;;2.58;;
35795;SDS011;21916;52.428;13.302;2024-03-23T03:18:41;20.95;;;3.05;;
35795;SDS011;21916;52.428;13.302;2024-03-23T03:21:07;14.65;;;3.22;;
35795;SDS011;21916;52.428;13.302;2024-03-23T03:23:39;11.85;;;2.63;;
35795;SDS011;21916;52.428;13.302;2024-03-23T03:26:05;17.58;;;2.55;;
35795;SDS011;21916;52.428;13.302;2024-03-23T03:28:31;11.90;;;3.17;;
35795;SDS011;21916;52.428;13.302;2024-03-23T03:30:58;12.95;;;2.58;;
35795;SDS011;21916;52.428;13.302;2024-03-23T03:33:25;12.55;;;2.25;;
35795;SDS011;21916;52.428;13.302;2024-03-23T03:35:52;12.85;;;3.33;;
35795;SDS011;21916;52.428;13.302;2024-03-23T03:38:18;11.00;;;2.95;;
35795;SDS011;21916;52.428;13.302;2024-03-23T03:40:44;15.00;;;2.47;;
35795;SDS011;21916;52.428;13.302;2024-03-23T03:43:10;16.90;;;2.85;;
35795;SDS011;21916;52.428;13.302;2024-03-23T03:45:36;11.45;;;2.70;;
35795;SDS011;21916;52.428;13.302;2024-03-23T03:48:02;14.13;;;3.05;;
35795;SDS011;21916;52.428;13.302;2024-03-23T03:50:28;16.70;;;2.95;;
35795;SDS011;21916;52.428;13.302;2024-03-23T03:52:53;12.88;;;2.72;;
35795;SDS011;21916;52.428;13.302;2024-03-23T03:55:19;14.60;;;2.75;;
35795;SDS011;21916;52.428;13.302;2024-03-23T03:57:45;13.13;;;2.60;;
35795;SDS011;21916;52.428;13.302;2024-03-23T04:00:11;14.60;;;2.97;;
35795;SDS011;21916;52.428;13.302;2024-03-23T04:02:37;14.60;;;3.42;;
35795;SDS011;21916;52.428;13.302;2024-03-23T04:05:04;18.70;;;2.72;;
35795;SDS011;21916;52.428;13.302;2024-03-23T04:07:30;16.20;;;2.63;;
35795;SDS011;21916;52.428;13.302;2024-03-23T04:09:56;12.70;;;2.13;;
35795;SDS011;21916;52.428;13.302;2024-03-23T04:12:21;10.57;;;2.60;;
35795;SDS011;21916;52.428;13.302;2024-03-23T04:14:48;14.43;;;2.88;;
35795;SDS011;21916;52.428;13.302;2024-03-23T04:17:14;16.48;;;2.35;;
35795;SDS011;21916;52.428;13.302;2024-03-23T04:19:40;20.35;;;3.40;;
35795;SDS011;21916;52.428;13.302;2024-03-23T04:22:06;17.33;;;2.30;;
35795;SDS011;21916;52.428;13.302;2024-03-23T04:24:32;14.15;;;3.28;;
35795;SDS011;21916;52.428;13.302;2024-03-23T04:26:57;13.52;;;1.85;;
35795;SDS011;21916;52.428;13.302;2024-03-23T04:29:23;16.35;;;2.33;;
35795;SDS011;21916;52.428;13.302;2024-03-23T04:31:49;15.45;;;2.05;;
35795;SDS011;21916;52.428;13.302;2024-03-23T04:34:14;14.20;;;2.40;;
35795;SDS011;21916;52.428;13.302;2024-03-23T04:36:40;12.93;;;2.08;;
35795;SDS011;21916;52.428;13.302;2024-03-23T04:39:06;13.55;;;2.95;;
35795;SDS011;21916;52.428;13.302;2024-03-23T04:41:34;8.57;;;2.22;;
35795;SDS011;21916;52.428;13.302;2024-03-23T04:44:00;14.43;;;2.58;;
35795;SDS011;21916;52.428;13.302;2024-03-23T04:46:26;9.88;;;2.17;;
35795;SDS011;21916;52.428;13.302;2024-03-23T04:48:52;9.65;;;2.13;;
35795;SDS011;21916;52.428;13.302;2024-03-23T04:51:22;11.82;;;2.10;;
35795;SDS011;21916;52.428;13.302;2024-03-23T04:53:48;12.27;;;2.05;;
35795;SDS011;21916;52.428;13.302;2024-03-23T04:56:15;6.72;;;1.95;;
35795;SDS011;21916;52.428;13.302;2024-03-23T04:58:42;12.88;;;3.13;;
35795;SDS011;21916;52.428;13.302;2024-03-23T05:01:08;11.80;;;1.95;;
35795;SDS011;21916;52.428;13.302;2024-03-23T05:03:36;11.80;;;2.53;;
35795;SDS011;21916;52.428;13.302;2024-03-23T05:06:02;13.13;;;2.05;;
35795;SDS011;21916;52.428;13.302;2024-03-23T05:08:28;9.27;;;2.03;;
35795;SDS011;21916;52.428;13.302;2024-03-23T05:10:54;11.48;;;1.77;;
35795;SDS011;21916;52.428;13.302;2024-03-23T05:13:19;14.68;;;2.65;;
35795;SDS011;21916;52.428;13.302;2024-03-23T05:15:50;12.10;;;2.38;;
35795;SDS011;21916;52.428;13.302;2024-03-23T05:18:17;9.65;;;2.13;;
35795;SDS011;21916;52.428;13.302;2024-03-23T05:20:43;11.85;;;1.85;;
35795;SDS011;21916;52.428;13.302;2024-03-23T05:23:09;14.13;;;1.95;;
35795;SDS011;21916;52.428;13.302;2024-03-23T05:25:35;9.95;;;1.80;;
35795;SDS011;21916;52.428;13.302;2024-03-23T05:28:00;6.55;;;1.65;;
35795;SDS011;21916;52.428;13.302;2024-03-23T05:30:26;11.23;;;2.00;;
35795;SDS011;21916;52.428;13.302;2024-03-23T05:32:52;7.38;;;1.45;;
35795;SDS011;21916;52.428;13.302;2024-03-23T05:35:18;9.15;;;2.08;;
35795;SDS011;21916;52.428;13.302;2024-03-23T05:37:43;12.15;;;2.05;;
35795;SDS011;21916;52.428;13.302;2024-03-23T05:40:10;12.85;;;2.03;;
35795;SDS011;21916;52.428;13.302;2024-03-23T05:42:38;12.90;;;1.75;;
35795;SDS011;21916;52.428;13.302;2024-03-23T05:45:04;11.68;;;1.75;;
35795;SDS011;21916;52.428;13.302;2024-03-23T05:47:31;5.00;;;1.40;;
35795;SDS011;21916;52.428;13.302;2024-03-23T05:49:57;9.27;;;1.83;;
35795;SDS011;21916;52.428;13.302;2024-03-23T05:52:23;12.13;;;1.52;;
35795;SDS011;21916;52.428;13.302;2024-03-23T05:54:51;8.48;;;2.00;;
35795;SDS011;21916;52.428;13.302;2024-03-23T05:57:17;7.43;;;1.63;;
35795;SDS011;21916;52.428;13.302;2024-03-23T05:59:44;5.05;;;1.10;;
35795;SDS011;21916;52.428;13.302;2024-03-23T06:02:10;8.15;;;1.52;;
35795;SDS011;21916;52.428;13.302;2024-03-23T06:04:36;11.20;;;1.85;;
35795;SDS011;21916;52.428;13.302;2024-03-23T06:07:02;4.53;;;2.00;;
35795;SDS011;21916;52.428;13.302;2024-03-23T06:09:31;5.10;;;1.60;;
35795;SDS011;21916;52.428;13.302;2024-03-23T06:11:57;6.30;;;1.45;;
35795;SDS011;21916;52.428;13.302;2024-03-23T06:14:25;9.23;;;1.70;;
35795;SDS011;21916;52.428;13.302;2024-03-23T06:16:51;6.72;;;1.95;;
35795;SDS011;21916;52.428;13.302;2024-03-23T06:19:17;12.98;;;1.83;;
35795;SDS011;21916;52.428;13.302;2024-03-23T06:21:43;5.18;;;1.75;;
35795;SDS011;21916;52.428;13.302;2024-03-23T06:24:10;7.68;;;1.83;;
35795;SDS011;21916;52.428;13.302;2024-03-23T06:26:36;9.20;;;1.50;;
35795;SDS011;21916;52.428;13.302;2024-03-23T06:29:02;8.55;;;1.80;;
35795;SDS011;21916;52.428;13.302;2024-03-23T06:31:30;5.40;;;1.67;;
35795;SDS011;21916;52.428;13.302;2024-03-23T06:33:56;9.23;;;1.80;;
35795;SDS011;21916;52.428;13.302;2024-03-23T06:36:21;13.68;;;2.45;;
35795;SDS011;21916;52.428;13.302;2024-03-23T06:38:47;7.63;;;1.83;;
35795;SDS011;21916;52.428;13.302;2024-03-23T06:41:14;12.43;;;2.30;;
35795;SDS011;21916;52.428;13.302;2024-03-23T06:43:39;10.70;;;2.28;;
35795;SDS011;21916;52.428;13.302;2024-03-23T06:46:05;8.93;;;2.00;;
35795;SDS011;21916;52.428;13.302;2024-03-23T06:48:31;10.10;;;1.42;;
35795;SDS011;21916;52.428;13.302;2024-03-23T06:50:57;8.13;;;1.92;;
35795;SDS011;21916;52.428;13.302;2024-03-23T06:53:23;9.57;;;1.77;;
35795;SDS011;21916;52.428;13.302;2024-03-23T06:55:52;8.25;;;1.30;;
35795;SDS011;21916;52.428;13.302;2024-03-23T06:58:19;8.57;;;2.20;;
35795;SDS011;21916;52.428;13.302;2024-03-23T07:00:45;6.88;;;1.33;;
35795;SDS011;21916;52.428;13.302;2024-03-23T07:03:11;3.97;;;2.03;;
35795;SDS011;21916;52.428;13.302;2024-03-23T07:05:37;3.65;;;1.55;;
35795;SDS011;21916;52.428;13.302;2024-03-23T07:08:03;10.50;;;1.67;;
35795;SDS011;21916;52.428;13.302;2024-03-23T07:10:29;4.90;;;0.85;;
35795;SDS011;21916;52.428;13.302;2024-03-23T07:12:55;4.70;;;1.08;;
35795;SDS011;21916;52.428;13.302;2024-03-23T07:15:20;8.75;;;1.70;;
35795;SDS011;21916;52.428;13.302;2024-03-23T07:17:46;4.65;;;1.60;;
35795;SDS011;21916;52.428;13.302;2024-03-23T07:20:13;8.10;;;1.50;;
35795;SDS011;21916;52.428;13.302;2024-03-23T07:22:38;6.18;;;1.20;;
35795;SDS011;21916;52.428;13.302;2024-03-23T07:25:05;7.55;;;1.92;;
35795;SDS011;21916;52.428;13.302;2024-03-23T07:27:31;7.18;;;1.60;;
35795;SDS011;21916;52.428;13.302;2024-03-23T07:29:57;5.28;;;1.80;;
35795;SDS011;21916;52.428;13.302;2024-03-23T07:32:23;7.90;;;1.77;;
35795;SDS011;21916;52.428;13.302;2024-03-23T07:34:49;9.70;;;2.00;;
35795;SDS011;21916;52.428;13.302;2024-03-23T07:37:14;8.30;;;1.90;;
35795;SDS011;21916;52.428;13.302;2024-03-23T07:39:40;8.35;;;2.30;;
35795;SDS011;21916;52.428;13.302;2024-03-23T07:42:06;6.63;;;1.63;;
35795;SDS011;21916;52.428;13.302;2024-03-23T07:44:32;8.50;;;1.67;;
35795;SDS011;21916;52.428;13.302;2024-03-23T07:47:01;8.65;;;1.70;;
35795;SDS011;21916;52.428;13.302;2024-03-23T07:49:26;7.55;;;1.45;;
35795;SDS011;21916;52.428;13.302;2024-03-23T07:51:53;6.40;;;1.30;;
35795;SDS011;21916;52.428;13.302;2024-03-23T07:54:18;6.68;;;1.95;;
35795;SDS011;21916;52.428;13.302;2024-03-23T07:56:44;7.18;;;1.33;;
35795;SDS011;21916;52.428;13.302;2024-03-23T07:59:13;8.82;;;2.50;;
35795;SDS011;21916;52.428;13.302;2024-03-23T08:01:38;7.00;;;1.70;;
35795;SDS011;21916;52.428;13.302;2024-03-23T08:04:05;7.55;;;1.90;;
35795;SDS011;21916;52.428;13.302;2024-03-23T08:06:31;8.70;;;1.95;;
35795;SDS011;21916;52.428;13.302;2024-03-23T08:08:57;11.70;;;2.72;;
35795;SDS011;21916;52.428;13.302;2024-03-23T08:11:29;7.20;;;1.63;;
35795;SDS011;21916;52.428;13.302;2024-03-23T08:13:56;6.03;;;1.60;;
35795;SDS011;21916;52.428;13.302;2024-03-23T08:16:22;11.57;;;2.15;;
35795;SDS011;21916;52.428;13.302;2024-03-23T08:18:51;9.82;;;1.65;;
35795;SDS011;21916;52.428;13.302;2024-03-23T08:21:16;6.20;;;2.05;;
35795;SDS011;21916;52.428;13.302;2024-03-23T08:23:43;3.97;;;1.10;;
35795;SDS011;21916;52.428;13.302;2024-03-23T08:26:10;4.43;;;2.05;;
35795;SDS011;21916;52.428;13.302;2024-03-23T08:28:37;5.07;;;1.00;;
35795;SDS011;21916;52.428;13.302;2024-03-23T08:31:12;5.47;;;0.90;;
35795;SDS011;21916;52.428;13.302;2024-03-23T08:33:39;6.30;;;1.13;;
35795;SDS011;21916;52.428;13.302;2024-03-23T08:36:07;9.15;;;1.63;;
35795;SDS011;21916;52.428;13.302;2024-03-23T08:38:34;9.82;;;1.38;;
35795;SDS011;21916;52.428;13.302;2024-03-23T08:43:31;3.58;;;1.45;;
35795;SDS011;21916;52.428;13.302;2024-03-23T08:46:10;4.18;;;1.05;;
35795;SDS011;21916;52.428;13.302;2024-03-23T08:48:37;10.20;;;1.42;;
35795;SDS011;21916;52.428;13.302;2024-03-23T08:51:04;5.05;;;1.23;;
35795;SDS011;21916;52.428;13.302;2024-03-23T08:53:31;3.13;;;1.13;;
35795;SDS011;21916;52.428;13.302;2024-03-23T08:55:57;8.38;;;1.60;;
35795;SDS011;21916;52.428;13.302;2024-03-23T08:58:25;8.07;;;2.42;;
35795;SDS011;21916;52.428;13.302;2024-03-23T09:00:51;4.45;;;1.13;;
35795;SDS011;21916;52.428;13.302;2024-03-23T09:03:18;4.60;;;1.48;;
35795;SDS011;21916;52.428;13.302;2024-03-23T09:05:44;3.40;;;1.00;;
35795;SDS011;21916;52.428;13.302;2024-03-23T09:08:09;5.32;;;1.50;;
35795;SDS011;21916;52.428;13.302;2024-03-23T09:10:39;2.72;;;1.73;;
35795;SDS011;21916;52.428;13.302;2024-03-23T09:13:05;3.25;;;1.42;;
35795;SDS011;21916;52.428;13.302;2024-03-23T09:15:31;8.73;;;1.73;;
35795;SDS011;21916;52.428;13.302;2024-03-23T09:18:02;4.72;;;1.35;;
35795;SDS011;21916;52.428;13.302;2024-03-23T09:20:28;3.80;;;0.93;;
35795;SDS011;21916;52.428;13.302;2024-03-23T09:22:54;2.38;;;1.05;;
35795;SDS011;21916;52.428;13.302;2024-03-23T09:25:20;3.45;;;0.93;;
35795;SDS011;21916;52.428;13.302;2024-03-23T09:27:46;3.47;;;1.08;;
35795;SDS011;21916;52.428;13.302;2024-03-23T09:30:12;7.30;;;1.02;;
35795;SDS011;21916;52.428;13.302;2024-03-23T09:32:41;4.30;;;0.50;;
35795;SDS011;21916;52.428;13.302;2024-03-23T09:35:08;6.10;;;1.35;;
35795;SDS011;21916;52.428;13.302;2024-03-23T09:37:34;7.93;;;1.10;;
35795;SDS011;21916;52.428;13.302;2024-03-23T09:39:59;4.28;;;0.85;;
35795;SDS011;21916;52.428;13.302;2024-03-23T09:42:25;5.20;;;1.92;;
35795;SDS011;21916;52.428;13.302;2024-03-23T09:44:51;4.53;;;1.15;;
35795;SDS011;21916;52.428;13.302;2024-03-23T09:47:17;6.88;;;1.40;;
35795;SDS011;21916;52.428;13.302;2024-03-23T09:49:43;4.88;;;1.20;;
35795;SDS011;21916;52.428;13.302;2024-03-23T09:52:09;11.55;;;1.70;;
35795;SDS011;21916;52.428;13.302;2024-03-23T09:54:36;9.27;;;2.10;;
35795;SDS011;21916;52.428;13.302;2024-03-23T09:57:01;8.10;;;2.22;;
35795;SDS011;21916;52.428;13.302;2024-03-23T09:59:28;7.85;;;1.30;;
35795;SDS011;21916;52.428;13.302;2024-03-23T10:01:54;9.85;;;2.33;;
35795;SDS011;21916;52.428;13.302;2024-03-23T10:04:36;10.20;;;1.75;;
35795;SDS011;21916;52.428;13.302;2024-03-23T10:07:18;6.60;;;1.55;;
35795;SDS011;21916;52.428;13.302;2024-03-23T10:09:45;4.97;;;1.63;;
35795;SDS011;21916;52.428;13.302;2024-03-23T10:12:16;6.28;;;1.77;;
35795;SDS011;21916;52.428;13.302;2024-03-23T10:14:43;7.75;;;2.20;;
35795;SDS011;21916;52.428;13.302;2024-03-23T10:17:13;5.13;;;1.45;;
35795;SDS011;21916;52.428;13.302;2024-03-23T10:19:40;6.07;;;1.15;;
35795;SDS011;21916;52.428;13.302;2024-03-23T10:22:08;12.80;;;1.45;;
35795;SDS011;21916;52.428;13.302;2024-03-23T10:24:34;6.78;;;1.33;;
35795;SDS011;21916;52.428;13.302;2024-03-23T10:27:00;9.77;;;1.75;;
35795;SDS011;21916;52.428;13.302;2024-03-23T10:29:25;4.60;;;1.73;;
35795;SDS011;21916;52.428;13.302;2024-03-23T10:31:53;8.18;;;1.23;;
35795;SDS011;21916;52.428;13.302;2024-03-23T10:34:26;3.50;;;1.25;;
35795;SDS011;21916;52.428;13.302;2024-03-23T10:36:53;5.57;;;1.33;;
35795;SDS011;21916;52.428;13.302;2024-03-23T10:39:20;4.68;;;1.45;;
35795;SDS011;21916;52.428;13.302;2024-03-23T10:41:48;5.65;;;1.48;;
35795;SDS011;21916;52.428;13.302;2024-03-23T10:44:16;5.93;;;1.70;;
35795;SDS011;21916;52.428;13.302;2024-03-23T10:46:45;4.10;;;1.80;;
35795;SDS011;21916;52.428;13.302;2024-03-23T10:49:10;7.72;;;1.48;;
35795;SDS011;21916;52.428;13.302;2024-03-23T10:51:37;9.18;;;1.50;;
35795;SDS011;21916;52.428;13.302;2024-03-23T10:54:06;5.93;;;1.83;;
35795;SDS011;21916;52.428;13.302;2024-03-23T10:56:33;8.00;;;1.50;;
35795;SDS011;21916;52.428;13.302;2024-03-23T10:59:01;5.65;;;1.95;;
35795;SDS011;21916;52.428;13.302;2024-03-23T11:01:29;5.90;;;1.60;;
35795;SDS011;21916;52.428;13.302;2024-03-23T11:03:55;3.58;;;0.95;;
35795;SDS011;21916;52.428;13.302;2024-03-23T11:06:37;4.90;;;1.30;;
35795;SDS011;21916;52.428;13.302;2024-03-23T11:09:03;3.63;;;1.05;;
35795;SDS011;21916;52.428;13.302;2024-03-23T11:11:29;4.85;;;1.30;;
35795;SDS011;21916;52.428;13.302;2024-03-23T11:13:57;5.68;;;1.30;;
35795;SDS011;21916;52.428;13.302;2024-03-23T11:16:23;3.63;;;1.85;;
35795;SDS011;21916;52.428;13.302;2024-03-23T11:22:00;5.07;;;1.40;;
35795;SDS011;21916;52.428;13.302;2024-03-23T11:24:26;5.10;;;1.10;;
35795;SDS011;21916;52.428;13.302;2024-03-23T11:26:52;2.58;;;1.20;;
35795;SDS011;21916;52.428;13.302;2024-03-23T11:29:18;3.75;;;1.38;;
35795;SDS011;21916;52.428;13.302;2024-03-23T11:31:50;4.07;;;1.30;;
35795;SDS011;21916;52.428;13.302;2024-03-23T11:34:16;7.10;;;1.95;;
35795;SDS011;21916;52.428;13.302;2024-03-23T11:36:43;6.38;;;1.48;;
35795;SDS011;21916;52.428;13.302;2024-03-23T11:39:16;6.65;;;1.73;;
35795;SDS011;21916;52.428;13.302;2024-03-23T11:41:52;4.85;;;1.40;;
35795;SDS011;21916;52.428;13.302;2024-03-23T11:44:19;4.40;;;1.40;;
35795;SDS011;21916;52.428;13.302;2024-03-23T11:46:50;7.07;;;1.63;;
35795;SDS011;21916;52.428;13.302;2024-03-23T11:49:22;8.18;;;1.50;;
35795;SDS011;21916;52.428;13.302;2024-03-23T11:51:49;6.00;;;1.13;;
35795;SDS011;21916;52.428;13.302;2024-03-23T11:54:15;7.25;;;1.75;;
35795;SDS011;21916;52.428;13.302;2024-03-23T11:56:53;6.40;;;1.55;;
35795;SDS011;21916;52.428;13.302;2024-03-23T11:59:33;9.63;;;1.63;;
35795;SDS011;21916;52.428;13.302;2024-03-23T12:02:11;8.00;;;1.48;;
35795;SDS011;21916;52.428;13.302;2024-03-23T12:04:41;6.97;;;1.27;;
35795;SDS011;21916;52.428;13.302;2024-03-23T12:07:11;6.05;;;1.80;;
35795;SDS011;21916;52.428;13.302;2024-03-23T12:09:40;4.30;;;1.60;;
35795;SDS011;21916;52.428;13.302;2024-03-23T12:12:10;12.30;;;1.92;;
35795;SDS011;21916;52.428;13.302;2024-03-23T12:14:44;10.38;;;2.60;;
35795;SDS011;21916;52.428;13.302;2024-03-23T12:17:25;7.95;;;1.60;;
35795;SDS011;21916;52.428;13.302;2024-03-23T12:19:51;14.23;;;2.03;;
35795;SDS011;21916;52.428;13.302;2024-03-23T12:22:21;3.97;;;1.25;;
35795;SDS011;21916;52.428;13.302;2024-03-23T12:24:47;7.25;;;1.83;;
35795;SDS011;21916;52.428;13.302;2024-03-23T12:27:13;6.35;;;1.15;;
35795;SDS011;21916;52.428;13.302;2024-03-23T12:29:40;9.75;;;1.50;;
35795;SDS011;21916;52.428;13.302;2024-03-23T12:32:08;4.70;;;1.55;;
35795;SDS011;21916;52.428;13.302;2024-03-23T12:34:34;9.02;;;2.42;;
35795;SDS011;21916;52.428;13.302;2024-03-23T12:37:00;6.20;;;1.50;;
35795;SDS011;21916;52.428;13.302;2024-03-23T12:39:26;6.25;;;2.03;;
35795;SDS011;21916;52.428;13.302;2024-03-23T12:41:52;4.82;;;1.48;;
35795;SDS011;21916;52.428;13.302;2024-03-23T12:44:18;5.78;;;1.50;;
35795;SDS011;21916;52.428;13.302;2024-03-23T12:46:44;6.38;;;1.60;;
35795;SDS011;21916;52.428;13.302;2024-03-23T12:49:10;5.72;;;1.38;;
35795;SDS011;21916;52.428;13.302;2024-03-23T12:51:37;7.57;;;1.40;;
35795;SDS011;21916;52.428;13.302;2024-03-23T12:54:03;9.88;;;1.63;;
35795;SDS011;21916;52.428;13.302;2024-03-23T12:56:29;6.32;;;1.77;;
35795;SDS011;21916;52.428;13.302;2024-03-23T12:58:56;7.68;;;1.90;;
35795;SDS011;21916;52.428;13.302;2024-03-23T13:01:25;4.72;;;1.35;;
35795;SDS011;21916;52.428;13.302;2024-03-23T13:03:51;3.08;;;1.30;;
35795;SDS011;21916;52.428;13.302;2024-03-23T13:06:17;6.57;;;1.35;;
35795;SDS011;21916;52.428;13.302;2024-03-23T13:08:44;7.20;;;1.48;;
35795;SDS011;21916;52.428;13.302;2024-03-23T13:11:11;5.00;;;1.23;;
35795;SDS011;21916;52.428;13.302;2024-03-23T13:13:37;4.43;;;1.30;;
35795;SDS011;21916;52.428;13.302;2024-03-23T13:16:03;9.48;;;1.48;;
35795;SDS011;21916;52.428;13.302;2024-03-23T13:18:30;4.82;;;1.23;;
35795;SDS011;21916;52.428;13.302;2024-03-23T13:20:57;3.80;;;1.10;;
35795;SDS011;21916;52.428;13.302;2024-03-23T13:23:23;4.95;;;1.15;;
35795;SDS011;21916;52.428;13.302;2024-03-23T13:25:52;3.25;;;1.00;;
35795;SDS011;21916;52.428;13.302;2024-03-23T13:28:21;6.25;;;1.55;;
35795;SDS011;21916;52.428;13.302;2024-03-23T13:30:54;4.50;;;1.75;;
35795;SDS011;21916;52.428;13.302;2024-03-23T13:33:20;10.43;;;1.40;;
35795;SDS011;21916;52.428;13.302;2024-03-23T13:35:53;3.50;;;1.38;;
35795;SDS011;21916;52.428;13.302;2024-03-23T13:38:20;5.32;;;1.58;;
35795;SDS011;21916;52.428;13.302;2024-03-23T13:41:04;5.88;;;1.80;;
35795;SDS011;21916;52.428;13.302;2024-03-23T13:43:31;5.63;;;1.52;;
35795;SDS011;21916;52.428;13.302;2024-03-23T13:45:57;5.40;;;1.95;;
35795;SDS011;21916;52.428;13.302;2024-03-23T13:48:25;4.82;;;2.03;;
35795;SDS011;21916;52.428;13.302;2024-03-23T13:51:01;5.25;;;1.75;;
35795;SDS011;21916;52.428;13.302;2024-03-23T13:53:28;5.80;;;1.50;;
35795;SDS011;21916;52.428;13.302;2024-03-23T13:55:55;7.47;;;1.50;;
35795;SDS011;21916;52.428;13.302;2024-03-23T13:58:20;5.25;;;1.48;;
35795;SDS011;21916;52.428;13.302;2024-03-23T14:00:46;8.73;;;1.80;;
35795;SDS011;21916;52.428;13.302;2024-03-23T14:03:13;6.97;;;1.70;;
35795;SDS011;21916;52.428;13.302;2024-03-23T14:05:39;7.55;;;1.40;;
35795;SDS011;21916;52.428;13.302;2024-03-23T14:08:09;7.47;;;1.63;;
35795;SDS011;21916;52.428;13.302;2024-03-23T14:10:36;5.20;;;1.55;;
35795;SDS011;21916;52.428;13.302;2024-03-23T14:13:02;10.95;;;1.50;;
35795;SDS011;21916;52.428;13.302;2024-03-23T14:15:31;7.43;;;2.22;;
35795;SDS011;21916;52.428;13.302;2024-03-23T14:17:57;7.97;;;2.03;;
35795;SDS011;21916;52.428;13.302;2024-03-23T14:20:23;5.97;;;1.80;;
35795;SDS011;21916;52.428;13.302;2024-03-23T14:22:49;11.98;;;1.70;;
35795;SDS011;21916;52.428;13.302;2024-03-23T14:25:15;4.70;;;1.55;;
35795;SDS011;21916;52.428;13.302;2024-03-23T14:27:43;8.35;;;1.77;;
35795;SDS011;21916;52.428;13.302;2024-03-23T14:30:09;9.35;;;2.58;;
35795;SDS011;21916;52.428;13.302;2024-03-23T14:32:35;10.98;;;2.50;;
35795;SDS011;21916;52.428;13.302;2024-03-23T14:35:06;7.38;;;2.67;;
35795;SDS011;21916;52.428;13.302;2024-03-23T14:37:38;5.28;;;2.30;;
35795;SDS011;21916;52.428;13.302;2024-03-23T14:40:07;8.48;;;2.42;;
35795;SDS011;21916;52.428;13.302;2024-03-23T14:42:33;6.50;;;2.42;;
35795;SDS011;21916;52.428;13.302;2024-03-23T14:44:59;7.13;;;2.00;;
35795;SDS011;21916;52.428;13.302;2024-03-23T14:47:25;3.10;;;1.25;;
35795;SDS011;21916;52.428;13.302;2024-03-23T14:49:51;6.60;;;2.45;;
35795;SDS011;21916;52.428;13.302;2024-03-23T14:52:17;3.65;;;1.05;;
35795;SDS011;21916;52.428;13.302;2024-03-23T14:54:43;0.98;;;0.73;;
35795;SDS011;21916;52.428;13.302;2024-03-23T14:57:09;5.88;;;1.70;;
35795;SDS011;21916;52.428;13.302;2024-03-23T14:59:35;5.57;;;1.65;;
35795;SDS011;21916;52.428;13.302;2024-03-23T15:02:03;7.13;;;1.60;;
35795;SDS011;21916;52.428;13.302;2024-03-23T15:04:30;4.13;;;1.40;;
35795;SDS011;21916;52.428;13.302;2024-03-23T15:06:55;5.90;;;1.88;;
35795;SDS011;21916;52.428;13.302;2024-03-23T15:09:21;5.43;;;1.33;;
35795;SDS011;21916;52.428;13.302;2024-03-23T15:11:47;5.88;;;1.00;;
35795;SDS011;21916;52.428;13.302;2024-03-23T15:14:13;6.13;;;1.13;;
35795;SDS011;21916;52.428;13.302;2024-03-23T15:16:38;1.73;;;0.80;;
35795;SDS011;21916;52.428;13.302;2024-03-23T15:19:04;3.50;;;1.15;;
35795;SDS011;21916;52.428;13.302;2024-03-23T15:21:31;3.55;;;1.13;;
35795;SDS011;21916;52.428;13.302;2024-03-23T15:23:57;3.95;;;1.23;;
35795;SDS011;21916;52.428;13.302;2024-03-23T15:26:23;4.47;;;1.35;;